Time;durP1;ratioP1;P1;durP2;ratioP2;P2;SDS_P1;SDS_P2;PMS_P1;PMS_P2;Temp;Humidity;BMP_temperature;BMP_pressure;BME280_temperature;BME280_humidity;BME280_pressure;Samples;Min_cycle;Max_cycle;Signal;HPM_P1;HPM_P2
2023/09/03 00:01:32;;;;;;;4.80;4.30;;;16.90;99.90;;;;;;5048965;28;20025;-74
2023/09/03 00:03:58;;;;;;;7.18;4.25;;;16.90;99.90;;;;;;5050475;28;20100;-74
2023/09/03 00:06:23;;;;;;;4.85;3.90;;;16.80;99.90;;;;;;5054291;28;20074;-74
2023/09/03 00:08:49;;;;;;;5.68;4.78;;;16.80;99.90;;;;;;5064849;28;20473;-74
2023/09/03 00:11:18;;;;;;;6.28;4.70;;;16.80;99.90;;;;;;5058642;28;20073;-74
2023/09/03 00:13:43;;;;;;;4.43;4.03;;;16.80;99.90;;;;;;5065653;28;20469;-74
2023/09/03 00:16:09;;;;;;;5.72;5.18;;;16.80;99.90;;;;;;5064496;28;20028;-75
2023/09/03 00:18:37;;;;;;;4.68;4.07;;;16.70;99.90;;;;;;5064711;28;20381;-74
2023/09/03 00:21:04;;;;;;;4.15;3.63;;;16.70;99.90;;;;;;5063325;28;20036;-75
2023/09/03 00:23:31;;;;;;;6.15;3.90;;;16.80;99.90;;;;;;5063082;28;20063;-74
2023/09/03 00:25:58;;;;;;;4.30;3.90;;;16.70;99.90;;;;;;5066010;28;20059;-74
2023/09/03 00:28:23;;;;;;;5.63;4.22;;;16.70;99.90;;;;;;5064279;28;20035;-74
2023/09/03 00:31:06;;;;;;;5.72;4.47;;;16.60;99.90;;;;;;5066174;28;20033;-75
2023/09/03 00:33:32;;;;;;;5.30;4.80;;;16.60;99.90;;;;;;5064078;28;20029;-75
2023/09/03 00:36:01;;;;;;;4.97;4.47;;;16.60;99.90;;;;;;5061790;28;20024;-75
2023/09/03 00:38:27;;;;;;;5.93;5.32;;;16.50;99.90;;;;;;5062277;28;20029;-74
2023/09/03 00:40:52;;;;;;;5.20;4.70;;;16.50;99.90;;;;;;5066656;28;20077;-74
2023/09/03 00:43:18;;;;;;;8.07;5.25;;;16.50;99.90;;;;;;5063183;28;20028;-75
2023/09/03 00:45:46;;;;;;;5.78;5.20;;;16.50;99.90;;;;;;5066629;28;20028;-74
2023/09/03 00:48:16;;;;;;;5.93;5.05;;;16.50;99.90;;;;;;5062987;28;20028;-74
2023/09/03 00:50:43;;;;;;;7.82;5.78;;;16.50;99.90;;;;;;5068433;28;20607;-75
2023/09/03 00:53:09;;;;;;;5.00;4.47;;;16.50;99.90;;;;;;5067438;28;20017;-75
2023/09/03 00:55:36;;;;;;;6.00;5.40;;;16.40;99.90;;;;;;5069050;28;20039;-74
2023/09/03 00:58:06;;;;;;;9.55;5.88;;;16.40;99.90;;;;;;5055285;28;20105;-74
2023/09/03 01:00:33;;;;;;;6.97;5.95;;;16.40;99.90;;;;;;5060930;28;20539;-74
2023/09/03 01:03:00;;;;;;;6.22;5.63;;;16.30;99.90;;;;;;5066434;28;20108;-74
2023/09/03 01:05:26;;;;;;;5.10;4.43;;;16.30;99.90;;;;;;5062158;28;20028;-74
2023/09/03 01:07:52;;;;;;;5.47;4.82;;;16.30;99.90;;;;;;5067954;28;20413;-74
2023/09/03 01:10:21;;;;;;;6.10;5.50;;;16.30;99.90;;;;;;5068591;28;20477;-74
2023/09/03 01:13:02;;;;;;;6.15;5.53;;;16.30;99.90;;;;;;5049544;28;20028;-75
2023/09/03 01:15:37;;;;;;;8.68;5.88;;;16.20;99.90;;;;;;5067324;28;20025;-74
2023/09/03 01:18:17;;;;;;;6.07;5.47;;;16.20;99.90;;;;;;5067806;28;20035;-74
2023/09/03 01:21:04;;;;;;;7.55;5.60;;;16.20;99.90;;;;;;5066195;28;20377;-74
2023/09/03 01:23:44;;;;;;;6.18;5.57;;;16.10;99.90;;;;;;5066282;28;20524;-74
2023/09/03 01:26:27;;;;;;;6.28;5.68;;;16.10;99.90;;;;;;5066821;28;20024;-74
2023/09/03 01:28:54;;;;;;;5.80;5.30;;;16.10;99.90;;;;;;5065163;28;20563;-74
2023/09/03 01:31:20;;;;;;;9.45;6.57;;;16.10;99.90;;;;;;5067045;28;20025;-75
2023/09/03 01:33:48;;;;;;;6.32;5.63;;;16.10;99.90;;;;;;5067177;28;20157;-74
2023/09/03 01:36:14;;;;;;;7.13;5.50;;;16.00;99.90;;;;;;5066185;28;20020;-75
2023/09/03 01:38:40;;;;;;;5.28;4.80;;;16.00;99.90;;;;;;5067236;28;20047;-75
2023/09/03 01:41:07;;;;;;;7.07;6.38;;;16.00;99.90;;;;;;5066231;28;20021;-75
2023/09/03 01:43:33;;;;;;;6.20;5.70;;;16.00;99.90;;;;;;5059481;28;20029;-74
2023/09/03 01:46:26;;;;;;;6.88;6.28;;;15.90;99.90;;;;;;5060600;28;20044;-75
2023/09/03 01:49:10;;;;;;;7.60;5.82;;;16.00;99.90;;;;;;5050907;28;20112;-74
2023/09/03 01:51:52;;;;;;;5.90;5.30;;;15.90;99.90;;;;;;5054195;28;20108;-74
2023/09/03 01:54:22;;;;;;;7.30;6.03;;;15.90;99.90;;;;;;5058438;28;20017;-74
2023/09/03 01:57:12;;;;;;;6.28;5.50;;;15.90;99.90;;;;;;5056499;28;20025;-74
2023/09/03 01:59:44;;;;;;;8.25;6.35;;;15.90;99.90;;;;;;5063524;28;20053;-74
2023/09/03 02:02:12;;;;;;;6.75;6.15;;;15.90;99.90;;;;;;5048025;28;20549;-74
2023/09/03 02:04:38;;;;;;;6.72;6.07;;;15.90;99.90;;;;;;5048678;28;20039;-74
2023/09/03 02:07:04;;;;;;;7.43;6.50;;;15.90;99.90;;;;;;5048736;28;20021;-74
2023/09/03 02:09:30;;;;;;;6.47;5.82;;;15.80;99.90;;;;;;5048831;28;20029;-74
2023/09/03 02:11:56;;;;;;;8.55;6.30;;;15.80;99.90;;;;;;5050004;28;20017;-74
2023/09/03 02:14:21;;;;;;;6.72;5.93;;;15.80;99.90;;;;;;5053107;28;20588;-74
2023/09/03 02:16:47;;;;;;;9.02;5.72;;;15.80;99.90;;;;;;5052946;28;20032;-74
2023/09/03 02:19:12;;;;;;;6.10;5.47;;;15.80;99.90;;;;;;5052736;28;20013;-74
2023/09/03 02:21:38;;;;;;;6.57;5.95;;;15.90;99.90;;;;;;5052722;28;20029;-74
2023/09/03 02:24:04;;;;;;;6.90;6.30;;;15.80;99.90;;;;;;5050627;28;20435;-74
2023/09/03 02:26:29;;;;;;;6.43;5.82;;;15.80;99.90;;;;;;5050028;28;20048;-74
2023/09/03 02:28:55;;;;;;;7.18;6.03;;;15.80;99.90;;;;;;5049382;28;20020;-74
2023/09/03 02:31:20;;;;;;;8.05;6.40;;;15.80;99.90;;;;;;5049880;28;20048;-74
2023/09/03 02:33:46;;;;;;;6.57;5.88;;;15.80;99.90;;;;;;5050444;28;20019;-74
2023/09/03 02:36:11;;;;;;;8.15;5.35;;;15.70;99.90;;;;;;5064692;28;20090;-75
2023/09/03 02:38:39;;;;;;;8.65;5.72;;;15.70;99.90;;;;;;5051026;28;20033;-74
2023/09/03 02:41:05;;;;;;;6.68;6.07;;;15.70;99.90;;;;;;5050095;28;20029;-74
2023/09/03 02:43:31;;;;;;;6.22;5.57;;;15.70;99.90;;;;;;5051734;28;20029;-74
2023/09/03 02:45:56;;;;;;;6.50;5.90;;;15.70;99.90;;;;;;5051107;28;20092;-74
2023/09/03 02:48:22;;;;;;;7.05;6.35;;;15.70;99.90;;;;;;5070273;28;20485;-74
2023/09/03 02:50:47;;;;;;;7.38;5.85;;;15.70;99.90;;;;;;5058070;28;20473;-74
2023/09/03 02:53:13;;;;;;;6.82;6.03;;;15.70;99.90;;;;;;5060556;28;20192;-74
2023/09/03 02:55:38;;;;;;;6.55;5.97;;;15.60;99.90;;;;;;5070877;28;20152;-74
2023/09/03 02:58:04;;;;;;;7.93;6.70;;;15.60;99.90;;;;;;5069508;28;20027;-74
2023/09/03 03:00:30;;;;;;;6.07;5.55;;;15.60;99.90;;;;;;5059285;28;20071;-74
2023/09/03 03:02:56;;;;;;;7.32;6.65;;;15.60;99.90;;;;;;5060546;28;20220;-74
2023/09/03 03:05:21;;;;;;;7.30;6.60;;;15.60;99.90;;;;;;5071328;28;20533;-74
2023/09/03 03:07:47;;;;;;;6.43;5.85;;;15.60;99.90;;;;;;5070686;28;20071;-74
2023/09/03 03:10:13;;;;;;;9.43;7.47;;;15.60;99.90;;;;;;5070447;28;20566;-74
2023/09/03 03:12:42;;;;;;;9.13;7.22;;;15.60;99.90;;;;;;5069429;28;20048;-74
2023/09/03 03:15:08;;;;;;;8.95;8.10;;;15.50;99.90;;;;;;5070950;28;20028;-74
2023/09/03 03:17:33;;;;;;;8.50;7.03;;;15.50;99.90;;;;;;5070209;28;20040;-74
2023/09/03 03:19:59;;;;;;;7.43;6.82;;;15.50;99.90;;;;;;5070602;28;20035;-74
2023/09/03 03:22:25;;;;;;;7.32;6.72;;;15.50;99.90;;;;;;5069307;28;20024;-74
2023/09/03 03:24:50;;;;;;;7.75;6.13;;;15.50;99.90;;;;;;5069933;28;20840;-74
2023/09/03 03:27:17;;;;;;;8.00;6.47;;;15.50;99.90;;;;;;5069475;28;20025;-74
2023/09/03 03:29:42;;;;;;;7.38;6.68;;;15.40;99.90;;;;;;5070788;28;20025;-74
2023/09/03 03:32:08;;;;;;;6.75;6.15;;;15.40;99.90;;;;;;5065349;28;20075;-75
2023/09/03 03:34:34;;;;;;;7.63;6.93;;;15.40;99.90;;;;;;5070425;28;20195;-74
2023/09/03 03:36:59;;;;;;;6.68;5.97;;;15.40;99.90;;;;;;5069574;28;20017;-74
2023/09/03 03:39:25;;;;;;;6.88;6.18;;;15.30;99.90;;;;;;5069976;28;20017;-74
2023/09/03 03:41:51;;;;;;;8.85;6.82;;;15.30;99.90;;;;;;5069892;28;20473;-74
2023/09/03 03:44:16;;;;;;;6.68;5.90;;;15.30;99.90;;;;;;5070193;28;20055;-74
2023/09/03 03:46:42;;;;;;;6.50;5.88;;;15.30;99.90;;;;;;5069110;28;20029;-74
2023/09/03 03:49:08;;;;;;;7.25;6.50;;;15.30;99.90;;;;;;5068735;28;20131;-74
2023/09/03 03:51:34;;;;;;;6.30;5.70;;;15.20;99.90;;;;;;5056737;28;20025;-74
2023/09/03 03:54:03;;;;;;;7.18;6.43;;;15.20;99.90;;;;;;5069978;28;20027;-74
2023/09/03 03:56:28;;;;;;;9.23;6.63;;;15.20;99.90;;;;;;5069895;28;20036;-74
2023/09/03 03:58:54;;;;;;;7.88;6.55;;;15.20;99.90;;;;;;5070390;28;20024;-74
2023/09/03 04:01:23;;;;;;;7.22;6.55;;;15.20;99.90;;;;;;5069301;28;20473;-74
2023/09/03 04:03:52;;;;;;;6.38;5.78;;;15.10;99.90;;;;;;5070584;28;20099;-74
2023/09/03 04:06:18;;;;;;;10.35;6.20;;;15.20;99.90;;;;;;5063858;28;20029;-74
2023/09/03 04:08:44;;;;;;;8.93;6.90;;;15.10;99.90;;;;;;5063523;28;20032;-74
2023/09/03 04:11:12;;;;;;;7.65;6.57;;;15.00;99.90;;;;;;5037279;28;20465;-74
2023/09/03 04:13:39;;;;;;;8.75;6.85;;;15.00;99.90;;;;;;5050886;28;20029;-74
2023/09/03 04:16:10;;;;;;;7.10;6.07;;;15.00;99.90;;;;;;5037393;28;20227;-74
2023/09/03 04:18:36;;;;;;;7.82;7.13;;;15.00;99.90;;;;;;5050083;28;20067;-74
2023/09/03 04:21:02;;;;;;;7.70;6.90;;;15.00;99.90;;;;;;5049876;28;20041;-74
2023/09/03 04:23:28;;;;;;;8.15;6.57;;;15.00;99.90;;;;;;5050620;28;20025;-74
2023/09/03 04:25:56;;;;;;;7.18;6.47;;;15.00;99.90;;;;;;5049929;28;20017;-74
2023/09/03 04:28:22;;;;;;;9.02;6.30;;;15.00;99.90;;;;;;5050197;28;20157;-74
2023/09/03 04:30:53;;;;;;;7.13;6.43;;;15.00;99.90;;;;;;5050544;28;20566;-74
2023/09/03 04:33:19;;;;;;;8.00;7.22;;;15.00;99.90;;;;;;5049441;28;20122;-74
2023/09/03 04:35:45;;;;;;;7.03;6.28;;;15.00;99.90;;;;;;5048970;28;20021;-74
2023/09/03 04:38:11;;;;;;;7.38;6.45;;;15.00;99.90;;;;;;5051159;28;20021;-74
2023/09/03 04:40:37;;;;;;;7.03;6.25;;;15.00;99.90;;;;;;5069399;28;20396;-74
2023/09/03 04:43:03;;;;;;;7.43;6.65;;;15.00;99.90;;;;;;5068611;28;20043;-74
2023/09/03 04:45:29;;;;;;;6.90;6.30;;;15.00;99.90;;;;;;5069453;28;20025;-74
2023/09/03 04:47:56;;;;;;;9.77;6.65;;;15.00;99.90;;;;;;5068183;28;20420;-74
2023/09/03 04:50:22;;;;;;;7.22;6.53;;;15.00;99.90;;;;;;5059598;28;20029;-74
2023/09/03 04:52:48;;;;;;;6.88;6.28;;;15.00;99.90;;;;;;5049729;28;20029;-74
2023/09/03 04:55:15;;;;;;;7.22;6.63;;;15.00;99.90;;;;;;5049090;28;20041;-73
2023/09/03 04:57:40;;;;;;;6.65;6.10;;;15.00;99.90;;;;;;5049674;28;20355;-74
2023/09/03 05:00:07;;;;;;;8.45;7.65;;;15.00;99.90;;;;;;5049794;28;20486;-74
2023/09/03 05:02:34;;;;;;;7.38;6.68;;;14.90;99.90;;;;;;5048357;28;20486;-74
2023/09/03 05:05:00;;;;;;;7.05;6.35;;;15.00;99.90;;;;;;5049013;28;20023;-74
2023/09/03 05:07:25;;;;;;;6.20;5.60;;;15.00;99.90;;;;;;5049127;28;20381;-74
2023/09/03 05:09:55;;;;;;;7.88;7.18;;;15.00;99.90;;;;;;5049602;28;20055;-74
2023/09/03 05:12:21;;;;;;;7.78;6.60;;;15.00;99.90;;;;;;5049311;28;20040;-74
2023/09/03 05:14:46;;;;;;;7.65;6.95;;;15.00;99.90;;;;;;5049436;28;20474;-74
2023/09/03 05:17:12;;;;;;;6.95;6.00;;;15.00;99.90;;;;;;5049185;28;20029;-74
2023/09/03 05:19:39;;;;;;;7.53;6.70;;;15.00;99.90;;;;;;5049097;28;20032;-74
2023/09/03 05:22:04;;;;;;;8.50;6.97;;;15.00;99.90;;;;;;5049329;28;20091;-74
2023/09/03 05:24:30;;;;;;;10.18;8.35;;;15.00;99.90;;;;;;5049254;28;20104;-74
2023/09/03 05:26:56;;;;;;;8.38;7.50;;;15.10;99.90;;;;;;5049705;28;20027;-74
2023/09/03 05:29:21;;;;;;;9.02;8.23;;;15.00;99.90;;;;;;5048894;28;20111;-75
2023/09/03 05:31:47;;;;;;;8.10;7.40;;;15.10;99.90;;;;;;5049220;28;20009;-75
2023/09/03 05:34:12;;;;;;;9.25;7.30;;;15.10;99.90;;;;;;5048574;28;20451;-74
2023/09/03 05:36:39;;;;;;;10.80;8.80;;;15.10;99.90;;;;;;5047322;28;20100;-74
2023/09/03 05:39:04;;;;;;;8.20;7.30;;;15.10;99.90;;;;;;5048627;28;20112;-75
2023/09/03 05:41:31;;;;;;;8.88;7.95;;;15.20;99.90;;;;;;5048411;28;20179;-74
2023/09/03 05:43:57;;;;;;;11.82;8.50;;;15.20;99.90;;;;;;5048896;28;20027;-74
2023/09/03 05:46:23;;;;;;;7.78;7.05;;;15.20;99.90;;;;;;5048533;28;20478;-74
2023/09/03 05:48:52;;;;;;;8.32;7.53;;;15.30;99.90;;;;;;5048499;28;20037;-74
2023/09/03 05:51:18;;;;;;;8.40;7.35;;;15.30;99.90;;;;;;5051153;28;20074;-74
2023/09/03 05:53:44;;;;;;;8.38;7.45;;;15.30;99.90;;;;;;5068523;28;20024;-74
2023/09/03 05:56:10;;;;;;;8.73;7.93;;;15.40;99.90;;;;;;5067541;28;20113;-74
2023/09/03 05:58:37;;;;;;;9.32;8.43;;;15.40;99.90;;;;;;5068208;28;20104;-75
2023/09/03 06:01:07;;;;;;;9.60;8.70;;;15.50;99.90;;;;;;5067263;28;20032;-74
2023/09/03 06:03:33;;;;;;;9.63;8.73;;;15.50;99.90;;;;;;5067960;28;20024;-74
2023/09/03 06:06:06;;;;;;;10.02;9.02;;;15.60;99.90;;;;;;5063853;28;20496;-74
2023/09/03 06:08:33;;;;;;;9.73;8.82;;;15.60;99.90;;;;;;5059630;28;20103;-75
2023/09/03 06:11:00;;;;;;;11.73;8.80;;;15.70;99.90;;;;;;5064228;28;20070;-74
2023/09/03 06:13:26;;;;;;;9.80;8.80;;;15.70;99.90;;;;;;5053194;28;20385;-75
2023/09/03 06:15:53;;;;;;;9.95;8.88;;;15.70;99.90;;;;;;5048373;28;20059;-75
2023/09/03 06:18:18;;;;;;;10.25;9.25;;;15.80;99.90;;;;;;5046582;28;20048;-74
2023/09/03 06:20:44;;;;;;;10.25;9.13;;;15.90;99.90;;;;;;5048487;28;20025;-74
2023/09/03 06:23:11;;;;;;;10.23;8.75;;;16.00;99.90;;;;;;5048478;28;20037;-74
2023/09/03 06:25:38;;;;;;;13.68;11.02;;;16.10;99.90;;;;;;5048812;28;20017;-75
2023/09/03 06:28:03;;;;;;;14.32;12.90;;;16.10;99.90;;;;;;5048482;28;20155;-75
2023/09/03 06:30:29;;;;;;;14.93;12.80;;;16.20;99.90;;;;;;5049043;28;20100;-74
2023/09/03 06:32:54;;;;;;;14.82;12.85;;;16.30;99.90;;;;;;5048371;28;20098;-74
2023/09/03 06:35:20;;;;;;;13.98;12.60;;;16.40;99.90;;;;;;5048755;28;20068;-74
2023/09/03 06:37:46;;;;;;;13.25;11.95;;;16.40;99.90;;;;;;5048623;28;20033;-74
2023/09/03 06:40:14;;;;;;;16.20;14.52;;;16.50;99.90;;;;;;5048322;28;20021;-75
2023/09/03 06:42:41;;;;;;;15.80;14.13;;;16.50;99.90;;;;;;5048489;28;20021;-75
2023/09/03 06:45:07;;;;;;;16.45;14.45;;;16.60;99.90;;;;;;5053382;28;20009;-74
2023/09/03 06:47:32;;;;;;;15.52;14.00;;;16.60;99.90;;;;;;5055205;28;20033;-74
2023/09/03 06:49:58;;;;;;;13.60;12.30;;;16.70;99.90;;;;;;5065587;28;20032;-75
2023/09/03 06:52:24;;;;;;;13.93;12.20;;;16.80;99.90;;;;;;5067785;28;20025;-75
2023/09/03 06:54:49;;;;;;;15.63;14.07;;;16.80;99.90;;;;;;5056431;28;20071;-75
2023/09/03 06:57:16;;;;;;;14.27;12.98;;;16.90;99.90;;;;;;5065865;28;20042;-74
2023/09/03 06:59:41;;;;;;;12.88;11.57;;;17.00;99.90;;;;;;5069880;28;20078;-74
2023/09/03 07:02:08;;;;;;;14.73;13.30;;;17.10;99.90;;;;;;5070133;28;20029;-75
2023/09/03 07:04:34;;;;;;;14.65;13.15;;;17.10;99.90;;;;;;5069358;28;20082;-75
2023/09/03 07:07:00;;;;;;;15.00;12.40;;;17.20;99.90;;;;;;5058787;28;20104;-75
2023/09/03 07:09:29;;;;;;;13.98;12.57;;;17.30;99.90;;;;;;5061102;28;20415;-75
2023/09/03 07:11:54;;;;;;;16.23;13.38;;;17.30;99.90;;;;;;5069614;28;20457;-75
2023/09/03 07:14:20;;;;;;;15.02;13.63;;;17.50;99.90;;;;;;5062910;28;20070;-75
2023/09/03 07:16:46;;;;;;;14.80;13.30;;;17.50;99.90;;;;;;5066421;28;20056;-74
2023/09/03 07:19:12;;;;;;;13.05;11.80;;;17.60;99.90;;;;;;5053982;28;20048;-74
2023/09/03 07:21:37;;;;;;;14.57;13.18;;;17.60;99.90;;;;;;5059141;28;20108;-75
2023/09/03 07:24:03;;;;;;;13.10;11.63;;;17.80;99.90;;;;;;5064108;28;20368;-75
2023/09/03 07:26:29;;;;;;;15.73;14.13;;;17.80;99.90;;;;;;5067445;28;20028;-75
2023/09/03 07:28:54;;;;;;;14.82;12.88;;;17.90;99.90;;;;;;5064208;28;20469;-73
2023/09/03 07:31:21;;;;;;;15.43;13.85;;;17.90;99.90;;;;;;5066359;28;20500;-74
2023/09/03 07:33:47;;;;;;;15.18;13.65;;;17.90;99.90;;;;;;5063657;28;20013;-74
2023/09/03 07:36:13;;;;;;;13.50;12.18;;;18.00;99.90;;;;;;5061831;28;20424;-74
2023/09/03 07:38:39;;;;;;;14.48;13.02;;;18.00;99.90;;;;;;5058776;28;20025;-74
2023/09/03 07:41:04;;;;;;;14.40;12.00;;;18.10;99.90;;;;;;5065472;28;20025;-74
2023/09/03 07:43:30;;;;;;;15.88;14.27;;;18.10;99.90;;;;;;5062105;28;20033;-74
2023/09/03 07:45:56;;;;;;;14.75;13.35;;;18.10;99.90;;;;;;5059879;28;20028;-74
2023/09/03 07:48:22;;;;;;;15.82;14.15;;;18.10;99.90;;;;;;5062366;28;20029;-74
2023/09/03 07:50:49;;;;;;;15.02;13.00;;;18.20;99.90;;;;;;5069031;28;20478;-74
2023/09/03 07:53:15;;;;;;;13.65;12.25;;;18.20;99.90;;;;;;5064028;28;20009;-74
2023/09/03 07:55:40;;;;;;;15.73;12.15;;;18.20;99.90;;;;;;5061614;28;20048;-74
2023/09/03 07:58:06;;;;;;;11.65;10.55;;;18.20;99.90;;;;;;5068985;28;20100;-74
2023/09/03 08:00:32;;;;;;;12.13;10.90;;;18.30;99.90;;;;;;5069833;28;20028;-74
2023/09/03 08:02:57;;;;;;;12.57;11.38;;;18.40;99.90;;;;;;5061938;28;20385;-73
2023/09/03 08:05:23;;;;;;;12.70;10.57;;;18.40;99.90;;;;;;5061847;28;20024;-74
2023/09/03 08:07:50;;;;;;;12.55;10.88;;;18.50;99.90;;;;;;5058258;28;20886;-74
2023/09/03 08:10:15;;;;;;;11.77;10.30;;;18.50;99.90;;;;;;5055428;28;20016;-74
2023/09/03 08:12:41;;;;;;;10.73;9.68;;;18.50;99.90;;;;;;5053488;28;20017;-74
2023/09/03 08:15:07;;;;;;;11.18;9.00;;;18.60;99.90;;;;;;5056504;28;20486;-74
2023/09/03 08:17:33;;;;;;;8.75;7.57;;;18.60;99.90;;;;;;5054006;28;20141;-74
2023/09/03 08:19:58;;;;;;;8.85;7.78;;;18.60;99.90;;;;;;5056712;28;20060;-74
2023/09/03 08:22:24;;;;;;;11.20;9.70;;;18.70;99.90;;;;;;5054185;28;20036;-74
2023/09/03 08:24:50;;;;;;;10.90;9.43;;;18.70;99.90;;;;;;5056683;28;20086;-74
2023/09/03 08:27:15;;;;;;;9.63;8.52;;;18.80;99.90;;;;;;5054559;28;20021;-74
2023/09/03 08:29:42;;;;;;;10.82;8.95;;;18.80;99.90;;;;;;5056303;28;20013;-75
2023/09/03 08:32:07;;;;;;;9.20;7.85;;;18.90;99.90;;;;;;5054066;28;20528;-74
2023/09/03 08:34:33;;;;;;;9.98;7.82;;;19.00;99.90;;;;;;5056152;28;20020;-74
2023/09/03 08:36:58;;;;;;;8.35;7.57;;;19.10;99.90;;;;;;5054223;28;20032;-74
2023/09/03 08:39:24;;;;;;;8.00;7.30;;;19.10;99.90;;;;;;5062196;28;20031;-73
2023/09/03 08:41:50;;;;;;;12.70;7.60;;;19.20;99.90;;;;;;5062382;28;20035;-74
2023/09/03 08:44:31;;;;;;;8.07;7.38;;;19.30;99.90;;;;;;5056774;28;20033;-72
2023/09/03 08:46:59;;;;;;;8.15;7.35;;;19.40;99.90;;;;;;5051680;28;20410;-77
2023/09/03 08:49:29;;;;;;;8.80;7.93;;;19.40;99.90;;;;;;5053601;28;20035;-75
2023/09/03 08:51:56;;;;;;;9.80;8.43;;;19.60;99.90;;;;;;5062557;28;20473;-78
2023/09/03 08:54:22;;;;;;;7.97;7.28;;;19.60;99.90;;;;;;5063254;28;20040;-74
2023/09/03 08:56:48;;;;;;;10.25;7.45;;;19.60;99.90;;;;;;5068645;28;20028;-74
2023/09/03 08:59:14;;;;;;;8.82;8.02;;;19.70;99.90;;;;;;5066022;28;20032;-75
2023/09/03 09:01:40;;;;;;;8.82;7.90;;;19.80;99.90;;;;;;5069055;28;20043;-74
2023/09/03 09:04:06;;;;;;;11.30;9.23;;;19.90;99.90;;;;;;5066527;28;20505;-74
2023/09/03 09:06:33;;;;;;;10.57;8.32;;;20.00;99.90;;;;;;5064102;28;20035;-74
2023/09/03 09:08:59;;;;;;;9.38;8.40;;;20.10;99.90;;;;;;5063683;28;20032;-79
2023/09/03 09:11:33;;;;;;;7.13;6.43;;;20.20;99.90;;;;;;5068061;28;20080;-80
2023/09/03 09:14:00;;;;;;;8.90;7.78;;;20.30;99.90;;;;;;5068339;28;20101;-80
2023/09/03 09:16:25;;;;;;;9.55;8.55;;;20.40;99.90;;;;;;5065743;28;20502;-79
2023/09/03 09:18:51;;;;;;;8.15;7.32;;;20.40;99.90;;;;;;5064997;28;20078;-79
2023/09/03 09:21:18;;;;;;;7.40;6.65;;;20.50;99.90;;;;;;5068126;28;20104;-78
2023/09/03 09:23:44;;;;;;;8.95;7.28;;;20.60;99.90;;;;;;5067733;28;20496;-74
2023/09/03 09:26:17;;;;;;;6.55;5.95;;;20.60;99.90;;;;;;5065790;28;20028;-74
2023/09/03 09:29:03;;;;;;;8.32;6.25;;;20.70;99.90;;;;;;5051811;28;20100;-74
2023/09/03 09:31:33;;;;;;;6.82;5.68;;;20.80;99.90;;;;;;5059851;28;20138;-74
2023/09/03 09:34:01;;;;;;;8.48;7.35;;;20.80;99.90;;;;;;5062857;28;20374;-74
2023/09/03 09:36:27;;;;;;;6.88;6.28;;;20.80;99.90;;;;;;5059072;28;20035;-75
2023/09/03 09:39:03;;;;;;;9.25;7.18;;;20.80;99.90;;;;;;5061508;28;20103;-75
2023/09/03 09:41:28;;;;;;;6.47;5.93;;;20.90;99.90;;;;;;5061038;28;20100;-75
2023/09/03 09:43:54;;;;;;;6.75;5.80;;;21.00;99.90;;;;;;5064156;28;20441;-75
2023/09/03 09:46:31;;;;;;;6.55;5.95;;;21.00;99.90;;;;;;5060992;28;20025;-75
2023/09/03 09:48:57;;;;;;;5.38;4.78;;;21.10;99.90;;;;;;5063066;28;20044;-73
2023/09/03 09:51:24;;;;;;;5.47;4.93;;;21.10;99.90;;;;;;5061936;28;20100;-76
2023/09/03 09:54:03;;;;;;;6.88;4.30;;;21.20;99.90;;;;;;5059440;28;20055;-74
2023/09/03 09:56:31;;;;;;;5.95;5.00;;;21.30;99.90;;;;;;5054195;28;20099;-75
2023/09/03 09:58:57;;;;;;;5.22;4.72;;;21.40;99.90;;;;;;5068662;28;20039;-76
2023/09/03 10:01:25;;;;;;;6.43;4.57;;;21.50;99.90;;;;;;5067726;28;20111;-75
2023/09/03 10:03:51;;;;;;;5.25;4.28;;;21.50;99.90;;;;;;5049452;28;20027;-75
2023/09/03 10:06:18;;;;;;;7.18;5.00;;;21.60;99.80;;;;;;5067293;28;20020;-75
2023/09/03 10:08:45;;;;;;;5.95;5.38;;;21.70;99.40;;;;;;5067679;28;20032;-74
2023/09/03 10:11:11;;;;;;;5.28;4.30;;;21.70;99.20;;;;;;5065662;28;20420;-75
2023/09/03 10:13:42;;;;;;;5.05;4.55;;;21.80;99.50;;;;;;5045256;28;20370;-74
2023/09/03 10:16:09;;;;;;;4.85;4.38;;;21.80;99.20;;;;;;5043615;28;20087;-74
2023/09/03 10:18:45;;;;;;;4.43;3.60;;;21.90;99.10;;;;;;5045318;28;20025;-74
2023/09/03 10:21:16;;;;;;;4.85;3.22;;;21.90;99.00;;;;;;5043567;28;20440;-74
2023/09/03 10:23:50;;;;;;;4.53;3.58;;;21.90;98.90;;;;;;5043464;28;20032;-74
2023/09/03 10:26:28;;;;;;;;;;;21.90;98.70;;;;;;5043767;28;20021;-74
2023/09/03 10:28:59;;;;;;;2.45;1.90;;;21.90;98.90;;;;;;5050938;28;19912;-74
2023/09/03 10:31:26;;;;;;;3.95;3.05;;;21.90;98.20;;;;;;5042376;28;20025;-74
2023/09/03 10:33:52;;;;;;;4.20;2.40;;;22.00;97.80;;;;;;5048084;28;20025;-74
2023/09/03 10:36:19;;;;;;;2.22;1.92;;;22.00;97.50;;;;;;5048787;28;20028;-74
2023/09/03 10:38:46;;;;;;;2.75;2.15;;;22.00;97.00;;;;;;5060287;28;20521;-74
2023/09/03 10:41:22;;;;;;;2.65;2.00;;;22.00;96.80;;;;;;5048437;28;20051;-75
2023/09/03 10:43:52;;;;;;;1.83;1.42;;;22.00;96.00;;;;;;5048586;28;20095;-77
2023/09/03 10:46:18;;;;;;;3.33;1.60;;;22.10;95.70;;;;;;5057096;28;20120;-76
2023/09/03 10:48:55;;;;;;;2.55;1.08;;;22.10;95.80;;;;;;5052251;28;20029;-76
2023/09/03 10:51:43;;;;;;;0.95;0.70;;;22.10;95.60;;;;;;5046675;28;20029;-77
2023/09/03 10:54:17;;;;;;;8.07;1.10;;;22.20;95.20;;;;;;5057325;28;20017;-77
2023/09/03 10:57:05;;;;;;;2.00;0.90;;;22.20;95.00;;;;;;5061050;28;20055;-76
2023/09/03 10:59:55;;;;;;;1.73;1.13;;;22.30;94.60;;;;;;5058051;28;20452;-76
2023/09/03 11:02:25;;;;;;;1.40;1.02;;;22.30;94.40;;;;;;5048227;28;20100;-77
2023/09/03 11:05:13;;;;;;;1.50;0.85;;;22.30;94.20;;;;;;5048208;28;20040;-75
2023/09/03 11:07:44;;;;;;;4.68;1.38;;;22.40;93.90;;;;;;5046447;28;20405;-74
2023/09/03 11:10:25;;;;;;;3.97;1.70;;;22.40;93.90;;;;;;5054168;28;20370;-74
2023/09/03 11:12:52;;;;;;;3.17;1.35;;;22.40;93.80;;;;;;5050683;28;20127;-73
2023/09/03 11:15:18;;;;;;;2.90;1.75;;;22.40;93.90;;;;;;5048230;28;20033;-74
2023/09/03 11:17:57;;;;;;;2.10;1.27;;;22.40;93.90;;;;;;5048586;28;20477;-74
2023/09/03 11:20:35;;;;;;;2.08;1.67;;;22.40;93.60;;;;;;5047952;28;20036;-74
2023/09/03 11:23:02;;;;;;;1.75;1.20;;;22.40;93.50;;;;;;5043339;28;20029;-74
2023/09/03 11:25:32;;;;;;;1.92;1.33;;;22.40;93.50;;;;;;5048033;28;20037;-74
2023/09/03 11:27:59;;;;;;;2.85;1.27;;;22.40;93.10;;;;;;5046687;28;20393;-74
2023/09/03 11:30:24;;;;;;;1.52;1.42;;;22.40;93.20;;;;;;5047873;28;20059;-74
2023/09/03 11:32:50;;;;;;;2.15;1.20;;;22.50;93.10;;;;;;5048379;28;20576;-75
2023/09/03 11:35:15;;;;;;;3.22;1.60;;;22.50;93.10;;;;;;5047576;28;20549;-74
2023/09/03 11:37:41;;;;;;;1.73;1.15;;;22.60;92.70;;;;;;5054986;28;20024;-74
2023/09/03 11:40:07;;;;;;;1.48;0.90;;;22.60;92.40;;;;;;5058871;28;20143;-74
2023/09/03 11:42:33;;;;;;;1.40;0.98;;;22.60;92.10;;;;;;5059395;28;20028;-74
2023/09/03 11:45:00;;;;;;;1.85;1.20;;;22.60;91.90;;;;;;5059259;28;20315;-74
2023/09/03 11:47:26;;;;;;;1.50;0.82;;;22.60;92.30;;;;;;5056189;28;20041;-74
2023/09/03 11:49:51;;;;;;;0.93;0.85;;;22.70;91.60;;;;;;5052058;28;20086;-74
2023/09/03 11:52:17;;;;;;;2.83;1.60;;;22.70;91.40;;;;;;5065347;28;20032;-74
2023/09/03 11:54:43;;;;;;;2.83;1.60;;;22.80;91.50;;;;;;5049097;28;20037;-74
2023/09/03 11:57:13;;;;;;;3.53;1.88;;;22.80;91.50;;;;;;5047625;28;20040;-77
2023/09/03 11:59:40;;;;;;;1.80;1.52;;;22.90;91.30;;;;;;5048280;28;20107;-75
2023/09/03 12:02:07;;;;;;;3.13;1.27;;;23.00;91.50;;;;;;5047639;28;20032;-78
2023/09/03 12:04:33;;;;;;;1.48;1.00;;;23.10;91.50;;;;;;5054762;28;20033;-80
2023/09/03 12:07:00;;;;;;;2.67;1.80;;;23.20;91.30;;;;;;5062704;28;20028;-79
2023/09/03 12:09:26;;;;;;;2.25;1.17;;;23.30;90.70;;;;;;5051423;28;20538;-79
2023/09/03 12:11:52;;;;;;;1.40;1.00;;;23.30;90.30;;;;;;5055462;28;20040;-81
2023/09/03 12:14:36;;;;;;;2.65;1.30;;;23.30;90.30;;;;;;5055013;28;20324;-80
2023/09/03 12:17:01;;;;;;;1.92;1.20;;;23.30;89.80;;;;;;5046381;28;20083;-79
2023/09/03 12:19:41;;;;;;;2.70;1.00;;;23.40;89.30;;;;;;5047565;28;20025;-80
2023/09/03 12:22:07;;;;;;;2.55;0.80;;;23.40;87.80;;;;;;5057236;28;20025;-79
2023/09/03 12:24:33;;;;;;;1.88;0.70;;;23.40;88.70;;;;;;5057384;28;20378;-80
2023/09/03 12:27:04;;;;;;;1.20;0.90;;;23.60;87.80;;;;;;5047951;28;20021;-80
2023/09/03 12:29:35;;;;;;;2.00;1.20;;;23.60;87.30;;;;;;5047780;28;20116;-80
2023/09/03 12:32:00;;;;;;;2.22;0.90;;;23.70;86.70;;;;;;5045918;28;20035;-80
2023/09/03 12:34:38;;;;;;;1.52;0.80;;;23.70;86.50;;;;;;5047064;28;20021;-79
2023/09/03 12:37:04;;;;;;;2.25;0.90;;;23.70;86.20;;;;;;5049295;28;20021;-76
2023/09/03 12:39:35;;;;;;;1.25;0.85;;;23.70;86.30;;;;;;5047156;28;20052;-76
2023/09/03 12:42:02;;;;;;;2.00;0.82;;;23.70;85.70;;;;;;5046809;28;20033;-76
2023/09/03 12:44:28;;;;;;;1.35;0.65;;;23.70;85.30;;;;;;5049400;28;20024;-76
2023/09/03 12:46:55;;;;;;;1.00;0.70;;;23.70;84.60;;;;;;5047429;28;20382;-77